Time;durP1;ratioP1;P1;durP2;ratioP2;P2;SDS_P1;SDS_P2;PMS_P1;PMS_P2;Temp;Humidity;BMP_temperature;BMP_pressure;BME280_temperature;BME280_humidity;BME280_pressure;Samples;Min_cycle;Max_cycle;Signal;HPM_P1;HPM_P2
2022/10/06 00:01:04;;;;;;;4.03;2.83;;;;;20.70;101036.00;;;;2052065;28;20954;-66
2022/10/06 00:02:05;;;;;;;4.75;2.60;;;;;20.70;101033.00;;;;2051533;28;20256;-66
2022/10/06 00:03:05;;;;;;;3.50;2.50;;;;;20.60;100949.00;;;;2052216;28;20216;-66
2022/10/06 00:04:05;;;;;;;4.10;2.90;;;;;20.70;101026.00;;;;2052301;28;20251;-65
2022/10/06 00:05:06;;;;;;;3.67;2.60;;;;;20.70;101023.00;;;;2052039;28;20579;-65
2022/10/06 00:06:06;;;;;;;2.90;2.60;;;;;20.60;101021.00;;;;2051943;28;20582;-65
2022/10/06 00:07:07;;;;;;;3.17;2.50;;;;;20.60;101032.00;;;;2049755;28;20220;-65
2022/10/06 00:08:07;;;;;;;2.80;2.40;;;;;20.60;101043.00;;;;2051229;28;20660;-66
2022/10/06 00:09:08;;;;;;;2.80;2.17;;;;;20.60;101045.00;;;;2054271;28;20307;-65
2022/10/06 00:10:08;;;;;;;2.90;2.50;;;;;20.60;101037.00;;;;2052220;28;21062;-66
2022/10/06 00:11:09;;;;;;;3.30;2.50;;;;;20.60;101052.00;;;;2050790;28;20834;-66
2022/10/06 00:12:09;;;;;;;2.53;2.33;;;;;20.60;101048.00;;;;2050507;28;20307;-65
2022/10/06 00:13:10;;;;;;;3.97;2.70;;;;;20.60;101023.00;;;;2051673;28;20311;-66
2022/10/06 00:14:10;;;;;;;3.60;2.30;;;;;20.60;101053.00;;;;2051579;28;20604;-66
2022/10/06 00:15:11;;;;;;;2.10;1.90;;;;;20.60;101059.00;;;;2051876;28;20209;-66
2022/10/06 00:16:16;;;;;;;3.90;2.42;;;;;20.60;101060.00;;;;2051785;28;20236;-66
2022/10/06 00:17:16;;;;;;;2.58;2.13;;;;;20.60;101062.00;;;;2051595;28;20212;-66
2022/10/06 00:18:16;;;;;;;2.77;2.00;;;;;20.60;101059.00;;;;2050535;28;20243;-66
2022/10/06 00:19:17;;;;;;;3.60;2.20;;;;;20.60;101056.00;;;;2051054;28;20215;-66
2022/10/06 00:20:17;;;;;;;3.57;2.30;;;;;20.60;101059.00;;;;2051620;28;20227;-66
2022/10/06 00:21:18;;;;;;;3.23;2.10;;;;;20.60;101065.00;;;;2050889;28;20236;-64
2022/10/06 00:22:18;;;;;;;2.97;2.20;;;;;20.60;101064.00;;;;2051014;28;20219;-66
2022/10/06 00:23:19;;;;;;;2.50;1.80;;;;;20.60;101072.00;;;;2051835;28;20212;-66
2022/10/06 00:24:19;;;;;;;2.77;2.00;;;;;20.60;101074.00;;;;2052552;28;20286;-66
2022/10/06 00:25:20;;;;;;;2.63;2.17;;;;;20.60;101066.00;;;;2052803;28;20510;-66
2022/10/06 00:26:21;;;;;;;4.05;2.53;;;;;20.60;101073.00;;;;2052333;28;20219;-66
2022/10/06 00:27:21;;;;;;;3.00;2.07;;;;;20.60;101054.00;;;;2051983;28;20211;-65
2022/10/06 00:28:21;;;;;;;3.23;2.40;;;;;20.60;101020.00;;;;2051973;28;20205;-65
2022/10/06 00:29:22;;;;;;;2.90;2.20;;;;;20.60;101077.00;;;;2051770;28;20236;-65
2022/10/06 00:30:24;;;;;;;3.20;2.33;;;;;20.60;101078.00;;;;2051072;28;20212;-67
2022/10/06 00:31:24;;;;;;;4.55;2.10;;;;;20.60;101085.00;;;;2052222;28;20208;-65
2022/10/06 00:32:25;;;;;;;3.10;1.93;;;;;20.60;101081.00;;;;2052446;28;20215;-65
2022/10/06 00:33:25;;;;;;;2.27;1.77;;;;;20.60;101078.00;;;;2052572;28;20584;-66
2022/10/06 00:34:25;;;;;;;5.47;2.10;;;;;20.60;101082.00;;;;2052523;28;20847;-65
2022/10/06 00:35:27;;;;;;;2.60;2.00;;;;;20.60;100529.00;;;;2051871;28;20695;-64
2022/10/06 00:36:28;;;;;;;3.28;2.20;;;;;20.60;101084.00;;;;2051916;28;20246;-64
2022/10/06 00:37:28;;;;;;;4.20;1.73;;;;;20.60;101063.00;;;;2051327;28;20208;-66
2022/10/06 00:38:28;;;;;;;2.17;1.60;;;;;20.60;101101.00;;;;2051287;28;20219;-64
2022/10/06 00:39:29;;;;;;;3.33;2.23;;;;;20.60;101094.00;;;;2052563;28;20240;-64
2022/10/06 00:40:30;;;;;;;2.90;1.80;;;;;20.60;101095.00;;;;2052418;28;20226;-64
2022/10/06 00:41:30;;;;;;;1.80;1.60;;;;;20.60;101090.00;;;;2051943;28;20709;-64
2022/10/06 00:42:31;;;;;;;3.37;1.70;;;;;20.60;101106.00;;;;2051668;28;20219;-64
2022/10/06 00:43:44;;;;;;;4.50;2.03;;;;;20.60;101095.00;;;;2054326;28;20239;-64
2022/10/06 00:44:50;;;;;;;4.05;2.05;;;;;20.60;101093.00;;;;2051595;28;20216;-64
2022/10/06 00:45:50;;;;;;;2.30;1.65;;;;;20.60;101106.00;;;;2052415;28;20294;-64
2022/10/06 00:46:51;;;;;;;1.90;1.47;;;;;20.60;101102.00;;;;2051966;28;20790;-65
2022/10/06 00:47:52;;;;;;;2.53;1.70;;;;;20.50;101099.00;;;;2051974;28;20216;-64
2022/10/06 00:49:19;;;;;;;3.10;1.90;;;;;20.50;101093.00;;;;2051593;28;20749;-64
2022/10/06 00:50:19;;;;;;;2.20;1.60;;;;;20.50;101103.00;;;;2048428;28;20761;-64
2022/10/06 00:51:20;;;;;;;3.83;1.47;;;;;20.50;101039.00;;;;2051672;28;20234;-64
2022/10/06 00:52:23;;;;;;;3.58;1.63;;;;;20.60;101091.00;;;;2050780;28;20774;-64
2022/10/06 00:53:24;;;;;;;3.28;1.70;;;;;20.60;101119.00;;;;2051487;28;20216;-64
2022/10/06 00:54:25;;;;;;;3.55;1.80;;;;;20.50;101058.00;;;;2051819;28;20743;-64
2022/10/06 00:55:25;;;;;;;3.43;1.80;;;;;20.50;101118.00;;;;2051809;28;20299;-64
2022/10/06 00:56:26;;;;;;;3.60;1.50;;;;;20.50;101116.00;;;;2051890;28;20208;-64
2022/10/06 00:57:26;;;;;;;3.00;1.77;;;;;20.50;101122.00;;;;2051225;28;20262;-64
2022/10/06 00:58:26;;;;;;;2.40;1.40;;;;;20.50;101113.00;;;;2050840;28;20236;-64
2022/10/06 00:59:27;;;;;;;3.40;1.77;;;;;20.50;101122.00;;;;2050739;28;20212;-64
2022/10/06 01:00:27;;;;;;;2.40;1.50;;;;;20.50;101117.00;;;;2051312;28;20572;-64
2022/10/06 01:01:27;;;;;;;2.80;1.60;;;;;20.50;101063.00;;;;2050921;28;20220;-64
2022/10/06 01:02:34;;;;;;;3.30;1.50;;;;;20.50;101125.00;;;;2051406;28;20216;-64
2022/10/06 01:03:38;;;;;;;2.85;1.35;;;;;20.50;101134.00;;;;2045257;29;20710;-64
2022/10/06 01:04:41;;;;;;;3.15;1.55;;;;;20.50;101128.00;;;;2051455;28;20224;-64
2022/10/06 01:05:45;;;;;;;3.63;1.50;;;;;20.50;101137.00;;;;2041613;29;20224;-64
2022/10/06 01:06:48;;;;;;;2.47;1.50;;;;;20.50;101126.00;;;;2044102;28;20223;-65
2022/10/06 01:07:49;;;;;;;2.28;1.40;;;;;20.50;101127.00;;;;2039441;29;20228;-64
2022/10/06 01:08:49;;;;;;;2.07;1.30;;;;;20.50;101131.00;;;;2039500;29;20218;-64
2022/10/06 01:09:49;;;;;;;2.50;1.47;;;;;20.50;101140.00;;;;2050858;28;20223;-65
2022/10/06 01:10:50;;;;;;;4.50;1.50;;;;;20.50;101139.00;;;;2051487;28;20217;-64
2022/10/06 01:11:52;;;;;;;2.50;1.03;;;;;20.50;101140.00;;;;2051662;28;20228;-64
2022/10/06 01:12:52;;;;;;;3.33;1.50;;;;;20.50;101138.00;;;;2051481;28;20220;-64
2022/10/06 01:13:54;;;;;;;1.80;1.20;;;;;20.50;101095.00;;;;2051654;28;20218;-64
2022/10/06 01:14:56;;;;;;;2.20;1.50;;;;;20.50;101104.00;;;;2051500;28;20222;-64
2022/10/06 01:16:04;;;;;;;1.88;1.23;;;;;20.40;101132.00;;;;2050853;28;20216;-64
2022/10/06 01:17:08;;;;;;;2.13;1.45;;;;;20.50;101130.00;;;;2050945;28;20244;-64
2022/10/06 01:18:12;;;;;;;2.97;1.30;;;;;20.50;101135.00;;;;2044241;28;20303;-64
2022/10/06 01:19:20;;;;;;;3.63;1.85;;;;;20.50;101142.00;;;;2051574;28;20224;-64
2022/10/06 01:20:20;;;;;;;2.90;1.60;;;;;20.50;101140.00;;;;2043260;29;20700;-65
2022/10/06 01:21:33;;;;;;;2.60;1.30;;;;;20.50;101141.00;;;;2035082;29;20224;-65
2022/10/06 01:22:52;;;;;;;2.92;1.55;;;;;20.50;101152.00;;;;2037472;29;20328;-64
2022/10/06 01:23:53;;;;;;;1.70;1.20;;;;;20.50;101147.00;;;;2050344;28;20243;-65
2022/10/06 01:24:53;;;;;;;2.80;1.20;;;;;20.50;101143.00;;;;2043279;29;20228;-64
2022/10/06 01:25:53;;;;;;;2.90;1.30;;;;;20.50;101151.00;;;;2043769;29;20256;-64
2022/10/06 01:26:54;;;;;;;3.47;1.07;;;;;20.40;101111.00;;;;2043451;29;20240;-65
2022/10/06 01:27:54;;;;;;;2.90;1.17;;;;;20.50;101155.00;;;;2047147;29;20220;-64
2022/10/06 01:28:54;;;;;;;2.50;1.10;;;;;20.50;101153.00;;;;2043466;29;20247;-64
2022/10/06 01:29:55;;;;;;;1.70;1.17;;;;;20.50;101162.00;;;;2050696;28;20230;-64
2022/10/06 01:30:56;;;;;;;3.27;1.10;;;;;20.50;101156.00;;;;2042845;29;20212;-64
2022/10/06 01:31:56;;;;;;;1.90;1.20;;;;;20.50;101155.00;;;;2042442;29;20225;-64
2022/10/06 01:32:56;;;;;;;2.10;1.43;;;;;20.50;101158.00;;;;2050860;28;20254;-64
2022/10/06 01:33:57;;;;;;;2.53;1.30;;;;;20.50;101154.00;;;;2043548;29;20213;-64
2022/10/06 01:34:57;;;;;;;2.40;1.07;;;;;20.40;101156.00;;;;2043574;29;20316;-64
2022/10/06 01:35:57;;;;;;;3.60;1.30;;;;;20.40;101053.00;;;;2052106;28;20240;-65
2022/10/06 01:36:57;;;;;;;1.67;1.23;;;;;20.50;101161.00;;;;2051378;28;20266;-65
2022/10/06 01:37:58;;;;;;;2.63;1.10;;;;;20.40;101167.00;;;;2050959;28;20215;-65
2022/10/06 01:38:58;;;;;;;1.93;1.27;;;;;20.40;101168.00;;;;2050786;28;20560;-65
2022/10/06 01:39:59;;;;;;;3.03;1.50;;;;;20.40;101104.00;;;;2051174;28;20224;-64
2022/10/06 01:40:59;;;;;;;4.30;1.57;;;;;20.40;101160.00;;;;2051295;28;20243;-64
2022/10/06 01:41:59;;;;;;;2.53;1.00;;;;;20.40;101117.00;;;;2051284;28;20275;-65
2022/10/06 01:43:00;;;;;;;2.73;1.30;;;;;20.40;101092.00;;;;2053570;28;20974;-64
2022/10/06 01:44:00;;;;;;;2.17;1.13;;;;;20.40;101157.00;;;;2052105;28;20220;-64
2022/10/06 01:45:00;;;;;;;2.57;1.23;;;;;20.40;101176.00;;;;2052149;28;20691;-64
2022/10/06 01:46:01;;;;;;;2.40;1.17;;;;;20.40;101172.00;;;;2051895;28;20622;-64
2022/10/06 01:47:03;;;;;;;2.80;1.60;;;;;20.40;101173.00;;;;2051398;28;20291;-64
2022/10/06 01:48:04;;;;;;;2.60;1.20;;;;;20.40;101174.00;;;;2050667;28;20300;-64
2022/10/06 01:49:04;;;;;;;1.30;1.00;;;;;20.40;101175.00;;;;2050660;28;20220;-64
2022/10/06 01:50:06;;;;;;;1.60;1.23;;;;;20.40;101169.00;;;;2051444;28;20282;-64
2022/10/06 01:51:08;;;;;;;3.67;1.20;;;;;20.40;101171.00;;;;2053410;28;20698;-65
2022/10/06 01:52:08;;;;;;;3.33;1.25;;;;;20.40;101172.00;;;;2054764;28;20592;-64
2022/10/06 01:53:08;;;;;;;3.00;1.43;;;;;20.40;101184.00;;;;2052590;28;20219;-64
2022/10/06 01:54:09;;;;;;;3.30;1.40;;;;;20.40;101186.00;;;;2051416;28;20638;-64
2022/10/06 01:55:09;;;;;;;2.67;1.30;;;;;20.40;101181.00;;;;2051735;28;20211;-64
2022/10/06 01:56:09;;;;;;;2.90;1.20;;;;;20.40;101189.00;;;;2040918;28;20247;-64
2022/10/06 01:57:10;;;;;;;3.53;1.20;;;;;20.40;101184.00;;;;2050348;28;20524;-64
2022/10/06 01:58:10;;;;;;;1.90;0.90;;;;;20.40;101185.00;;;;2050643;28;20224;-65
2022/10/06 01:59:10;;;;;;;2.47;1.20;;;;;20.40;101182.00;;;;2054505;28;20220;-64
2022/10/06 02:00:11;;;;;;;3.20;1.23;;;;;20.40;101183.00;;;;2053425;28;20761;-64
2022/10/06 02:01:12;;;;;;;4.70;1.37;;;;;20.40;101189.00;;;;2051027;28;20228;-64
2022/10/06 02:02:12;;;;;;;3.63;1.30;;;;;20.40;101183.00;;;;2050256;28;20853;-64
2022/10/06 02:03:12;;;;;;;2.97;1.20;;;;;20.40;101164.00;;;;2051563;28;20231;-64
2022/10/06 02:04:13;;;;;;;2.80;1.10;;;;;19.90;101199.00;;;;2051688;28;20227;-65
2022/10/06 02:05:14;;;;;;;3.97;1.40;;;;;20.40;101194.00;;;;2051527;28;20566;-64
2022/10/06 02:06:14;;;;;;;4.05;1.13;;;;;20.40;101122.00;;;;2047663;28;20258;-64
2022/10/06 02:07:15;;;;;;;2.33;1.23;;;;;20.40;101203.00;;;;2051285;28;20224;-65
2022/10/06 02:08:15;;;;;;;3.43;1.40;;;;;20.40;101207.00;;;;2053758;28;20274;-64
2022/10/06 02:09:15;;;;;;;2.37;1.37;;;;;20.40;101205.00;;;;2050876;28;20215;-65
2022/10/06 02:10:16;;;;;;;3.00;1.30;;;;;20.20;101205.00;;;;2053738;28;20214;-65
2022/10/06 02:11:17;;;;;;;1.80;1.10;;;;;20.40;101201.00;;;;2051247;28;20244;-64
2022/10/06 02:12:17;;;;;;;4.37;1.40;;;;;20.40;101206.00;;;;2050519;28;20227;-65
2022/10/06 02:13:17;;;;;;;4.13;1.13;;;;;19.90;101209.00;;;;2050526;28;20475;-65
2022/10/06 02:14:18;;;;;;;2.07;1.13;;;;;20.40;101214.00;;;;2050601;28;20213;-65
2022/10/06 02:15:19;;;;;;;4.80;1.47;;;;;20.40;101226.00;;;;2051131;28;20212;-65
2022/10/06 02:16:19;;;;;;;3.03;1.15;;;;;20.40;101218.00;;;;2051656;28;20216;-65
2022/10/06 02:17:21;;;;;;;1.63;1.23;;;;;20.40;101225.00;;;;2050904;28;20215;-65
2022/10/06 02:18:21;;;;;;;2.78;1.45;;;;;20.40;101215.00;;;;2050906;28;20248;-65
2022/10/06 02:19:22;;;;;;;2.00;1.10;;;;;20.40;101225.00;;;;2051303;28;20243;-65
2022/10/06 02:20:22;;;;;;;3.40;1.30;;;;;20.40;101233.00;;;;2050540;28;20227;-64
2022/10/06 02:21:22;;;;;;;4.23;1.20;;;;;20.30;101222.00;;;;2050690;28;20757;-65
2022/10/06 02:22:23;;;;;;;2.47;1.27;;;;;20.40;101241.00;;;;2050506;28;20307;-65
2022/10/06 02:23:23;;;;;;;2.23;1.10;;;;;20.30;101232.00;;;;2050752;28;20364;-65
2022/10/06 02:24:23;;;;;;;2.23;1.33;;;;;20.40;101233.00;;;;2051382;28;20648;-65
2022/10/06 02:25:23;;;;;;;3.30;1.20;;;;;20.40;101240.00;;;;2054370;28;20746;-65
2022/10/06 02:26:24;;;;;;;2.40;1.23;;;;;20.30;101234.00;;;;2050961;28;20219;-65
2022/10/06 02:27:24;;;;;;;2.67;1.10;;;;;20.30;101233.00;;;;2050830;28;20212;-65
2022/10/06 02:28:25;;;;;;;2.90;1.20;;;;;20.40;101245.00;;;;2051132;28;20212;-65
2022/10/06 02:29:25;;;;;;;2.20;1.07;;;;;20.30;101233.00;;;;2051521;28;20220;-65
2022/10/06 02:30:25;;;;;;;3.80;1.60;;;;;20.30;101232.00;;;;2050665;28;20615;-65
2022/10/06 02:31:26;;;;;;;2.27;0.97;;;;;20.30;101220.00;;;;2050678;28;20589;-64
2022/10/06 02:32:34;;;;;;;4.33;1.50;;;;;20.30;101231.00;;;;2050770;28;20223;-65
2022/10/06 02:33:35;;;;;;;2.80;1.20;;;;;20.30;101194.00;;;;2050257;28;20670;-65
2022/10/06 02:34:35;;;;;;;2.97;1.43;;;;;20.40;101239.00;;;;2049964;28;20223;-65
2022/10/06 02:35:35;;;;;;;1.73;1.00;;;;;20.30;101244.00;;;;2050359;28;20625;-65
2022/10/06 02:36:35;;;;;;;5.10;1.30;;;;;20.40;101246.00;;;;2051307;28;20621;-65
2022/10/06 02:37:36;;;;;;;5.47;1.37;;;;;20.30;101247.00;;;;2051420;28;20621;-65
2022/10/06 02:38:36;;;;;;;2.60;1.60;;;;;20.30;101240.00;;;;2048543;28;20684;-65
2022/10/06 02:39:37;;;;;;;3.70;1.20;;;;;20.30;101240.00;;;;2050916;28;20703;-65
2022/10/06 02:40:37;;;;;;;3.37;1.40;;;;;20.30;101247.00;;;;2050719;28;20250;-65
2022/10/06 02:41:37;;;;;;;3.40;1.30;;;;;20.30;101238.00;;;;2042948;29;20586;-65
2022/10/06 02:42:38;;;;;;;2.70;1.10;;;;;20.30;101204.00;;;;2050708;28;20546;-65
2022/10/06 02:43:38;;;;;;;4.80;1.90;;;;;20.30;101231.00;;;;2050870;28;20691;-65
2022/10/06 02:44:39;;;;;;;2.87;1.00;;;;;20.30;101255.00;;;;2048181;28;20460;-65
2022/10/06 02:45:40;;;;;;;1.60;0.93;;;;;20.30;101252.00;;;;2050800;28;20235;-64
2022/10/06 02:46:41;;;;;;;2.80;1.30;;;;;20.30;101262.00;;;;2051007;28;20211;-64
2022/10/06 02:47:41;;;;;;;5.03;1.73;;;;;20.30;101265.00;;;;2048236;28;20212;-65
2022/10/06 02:48:41;;;;;;;1.97;1.10;;;;;20.30;101268.00;;;;2047210;28;20223;-65
2022/10/06 02:49:41;;;;;;;2.63;1.35;;;;;20.30;101265.00;;;;2017997;28;1046846;-65
2022/10/06 02:50:42;;;;;;;2.50;1.10;;;;;20.30;101266.00;;;;2049297;28;20763;-65
2022/10/06 02:51:42;;;;;;;2.47;1.20;;;;;20.30;101275.00;;;;2049710;28;20738;-65
2022/10/06 02:52:44;;;;;;;2.10;1.10;;;;;20.30;101270.00;;;;2050750;28;20213;-65
2022/10/06 02:53:44;;;;;;;3.47;1.65;;;;;20.30;101275.00;;;;2052044;28;20275;-65
2022/10/06 02:54:45;;;;;;;5.37;1.30;;;;;20.30;101269.00;;;;2051959;28;20696;-65
2022/10/06 02:55:46;;;;;;;2.87;1.10;;;;;20.30;101270.00;;;;2055629;28;20494;-65
2022/10/06 02:56:49;;;;;;;2.03;1.27;;;;;20.30;101276.00;;;;2051039;28;20466;-65
2022/10/06 02:57:49;;;;;;;2.88;1.10;;;;;20.30;101280.00;;;;2052042;28;20208;-65
2022/10/06 02:58:50;;;;;;;3.80;1.60;;;;;20.30;101263.00;;;;2051465;28;20216;-65
2022/10/06 02:59:50;;;;;;;2.43;1.10;;;;;20.30;101289.00;;;;2051888;28;20242;-66
2022/10/06 03:00:50;;;;;;;4.50;1.30;;;;;20.30;101294.00;;;;2051186;28;20257;-65
2022/10/06 03:01:51;;;;;;;3.40;1.30;;;;;20.30;101289.00;;;;2052712;28;20207;-65
2022/10/06 03:02:52;;;;;;;3.47;1.57;;;;;20.30;101285.00;;;;2052192;28;20223;-65
2022/10/06 03:03:53;;;;;;;3.20;1.30;;;;;20.30;101292.00;;;;2051704;28;20231;-64
2022/10/06 03:04:53;;;;;;;4.03;1.57;;;;;20.30;101290.00;;;;2051198;28;20255;-65
2022/10/06 03:06:23;;;;;;;3.17;1.30;;;;;20.30;101294.00;;;;2050227;28;20220;-63
2022/10/06 03:07:23;;;;;;;2.00;1.23;;;;;20.30;101273.00;;;;2052491;28;20295;-65
2022/10/06 03:08:24;;;;;;;4.30;1.40;;;;;20.30;101281.00;;;;2051319;28;20223;-64
2022/10/06 03:09:24;;;;;;;4.07;1.47;;;;;20.30;101291.00;;;;2050702;28;20734;-65
2022/10/06 03:10:24;;;;;;;5.50;1.30;;;;;20.30;101291.00;;;;2050436;28;20697;-64
2022/10/06 03:11:33;;;;;;;2.13;1.13;;;;;20.30;101299.00;;;;2050362;28;20223;-65
2022/10/06 03:12:33;;;;;;;5.40;1.23;;;;;20.30;101299.00;;;;2050334;28;20852;-65
2022/10/06 03:13:33;;;;;;;4.17;1.37;;;;;20.30;101300.00;;;;2050223;28;20282;-65
2022/10/06 03:14:33;;;;;;;3.00;1.23;;;;;20.30;101306.00;;;;2049977;28;20701;-64
2022/10/06 03:15:34;;;;;;;2.50;1.50;;;;;20.30;101317.00;;;;2050767;28;20692;-65
2022/10/06 03:16:39;;;;;;;4.97;1.60;;;;;20.30;101314.00;;;;2050752;28;20702;-64
2022/10/06 03:17:39;;;;;;;2.97;1.20;;;;;20.30;101323.00;;;;2043282;28;20684;-64
2022/10/06 03:18:42;;;;;;;3.30;1.10;;;;;20.30;101317.00;;;;2052444;28;20243;-65
2022/10/06 03:19:42;;;;;;;3.05;1.25;;;;;20.30;101316.00;;;;2051084;28;20690;-64
2022/10/06 03:20:43;;;;;;;3.00;1.33;;;;;20.30;101293.00;;;;2050621;28;20208;-64
2022/10/06 03:21:43;;;;;;;3.97;1.10;;;;;20.30;101314.00;;;;2051132;28;20216;-64
2022/10/06 03:22:43;;;;;;;2.83;1.20;;;;;20.30;101308.00;;;;2051111;28;20216;-64
2022/10/06 03:23:45;;;;;;;3.97;1.30;;;;;20.30;101274.00;;;;2051198;28;20251;-65
2022/10/06 03:24:45;;;;;;;4.07;1.50;;;;;20.30;101321.00;;;;2051816;28;20263;-64
2022/10/06 03:25:54;;;;;;;2.83;1.40;;;;;20.00;101332.00;;;;2049678;28;20311;-64
2022/10/06 03:26:54;;;;;;;5.15;1.25;;;;;20.30;101328.00;;;;2050770;28;20258;-65
2022/10/06 03:27:55;;;;;;;7.67;1.27;;;;;20.30;101330.00;;;;2049574;28;20227;-64
2022/10/06 03:28:55;;;;;;;4.20;1.47;;;;;20.30;101327.00;;;;2050718;28;20223;-64
2022/10/06 03:29:55;;;;;;;2.27;1.20;;;;;20.30;101330.00;;;;2050836;28;20327;-65
2022/10/06 03:31:02;;;;;;;2.10;1.00;;;;;20.30;101335.00;;;;2051219;28;20220;-64
2022/10/06 03:32:03;;;;;;;3.13;1.17;;;;;20.20;101328.00;;;;2050731;28;20294;-64
2022/10/06 03:33:03;;;;;;;2.70;1.13;;;;;20.30;101323.00;;;;2046475;29;20224;-64
2022/10/06 03:34:03;;;;;;;3.67;1.43;;;;;20.30;101338.00;;;;2046509;29;20299;-65
2022/10/06 03:35:04;;;;;;;4.20;1.40;;;;;20.30;101300.00;;;;2050105;28;20223;-64
2022/10/06 03:36:16;;;;;;;2.37;1.20;;;;;20.30;101338.00;;;;2050038;28;20219;-65
2022/10/06 03:37:17;;;;;;;3.65;1.77;;;;;20.30;101338.00;;;;2051243;28;20220;-65
2022/10/06 03:38:18;;;;;;;3.75;1.60;;;;;20.30;101338.00;;;;2051023;28;20212;-64
2022/10/06 03:39:18;;;;;;;3.50;1.50;;;;;20.20;101340.00;;;;2050731;28;20701;-65
2022/10/06 03:40:18;;;;;;;3.20;1.30;;;;;20.20;101344.00;;;;2051552;28;20216;-64
2022/10/06 03:41:24;;;;;;;2.93;1.20;;;;;20.20;101345.00;;;;2051047;28;20246;-65
2022/10/06 03:42:24;;;;;;;5.20;1.40;;;;;20.20;101340.00;;;;2049744;28;20670;-65
2022/10/06 03:43:24;;;;;;;3.30;1.53;;;;;20.20;101365.00;;;;2050089;28;20263;-65
2022/10/06 03:44:24;;;;;;;3.20;1.30;;;;;20.20;101355.00;;;;2050729;28;20216;-64
2022/10/06 03:45:25;;;;;;;5.77;1.50;;;;;20.20;101359.00;;;;2051504;28;20703;-65
2022/10/06 03:46:29;;;;;;;2.33;1.13;;;;;20.20;101346.00;;;;2051605;28;20703;-65
2022/10/06 03:47:30;;;;;;;3.95;1.20;;;;;20.20;101342.00;;;;2050382;28;20272;-65
2022/10/06 03:48:32;;;;;;;3.73;1.33;;;;;20.20;101371.00;;;;2050677;28;20215;-65
2022/10/06 03:49:32;;;;;;;3.55;1.25;;;;;20.30;101360.00;;;;2041894;29;20219;-65
2022/10/06 03:50:32;;;;;;;2.30;1.33;;;;;20.20;101297.00;;;;2034097;29;20608;-65
2022/10/06 03:51:37;;;;;;;3.80;1.30;;;;;20.20;101364.00;;;;2049115;28;20275;-65
2022/10/06 03:52:37;;;;;;;2.40;1.30;;;;;20.20;101309.00;;;;2052023;28;20219;-65
2022/10/06 03:53:38;;;;;;;2.67;1.00;;;;;20.20;101361.00;;;;2046645;28;20216;-65
2022/10/06 03:54:38;;;;;;;3.57;1.33;;;;;20.20;101370.00;;;;2051922;28;20219;-65
2022/10/06 03:55:38;;;;;;;2.97;1.30;;;;;20.20;101373.00;;;;2053448;28;20262;-65
2022/10/06 03:56:39;;;;;;;2.77;1.03;;;;;20.20;101378.00;;;;2045338;29;20231;-64
2022/10/06 03:57:40;;;;;;;3.20;1.30;;;;;20.20;101372.00;;;;2054587;28;20215;-65
2022/10/06 03:58:44;;;;;;;4.17;1.80;;;;;20.20;101375.00;;;;2042075;29;20762;-65
2022/10/06 03:59:45;;;;;;;2.58;1.20;;;;;20.20;101376.00;;;;2041992;28;20295;-65
2022/10/06 04:00:45;;;;;;;3.50;1.40;;;;;20.20;101388.00;;;;2042988;28;20588;-65
2022/10/06 04:01:46;;;;;;;7.23;1.50;;;;;20.20;101384.00;;;;2050422;28;20717;-65
2022/10/06 04:02:48;;;;;;;2.20;1.00;;;;;20.20;101383.00;;;;2050427;28;20266;-64
2022/10/06 04:03:48;;;;;;;3.92;1.50;;;;;20.20;101390.00;;;;2051128;28;20302;-65
2022/10/06 04:04:49;;;;;;;6.70;1.47;;;;;20.20;101387.00;;;;2050066;28;20267;-65
2022/10/06 04:05:53;;;;;;;3.20;1.27;;;;;20.20;101381.00;;;;2050076;28;20223;-65
2022/10/06 04:06:53;;;;;;;3.63;1.27;;;;;20.20;101388.00;;;;2050576;28;20216;-65
2022/10/06 04:07:54;;;;;;;2.63;1.37;;;;;20.20;101392.00;;;;2051232;28;20212;-65
2022/10/06 04:08:54;;;;;;;3.60;1.30;;;;;20.20;101391.00;;;;2052968;28;20716;-65
2022/10/06 04:09:54;;;;;;;4.70;1.27;;;;;20.20;101395.00;;;;2042078;28;20684;-65
2022/10/06 04:10:55;;;;;;;2.80;1.10;;;;;20.20;101406.00;;;;2049830;28;20224;-65
2022/10/06 04:11:55;;;;;;;3.73;1.30;;;;;20.20;101389.00;;;;2049978;28;20288;-65
2022/10/06 04:12:55;;;;;;;3.67;1.20;;;;;20.20;101405.00;;;;2046272;29;20223;-64
2022/10/06 04:13:58;;;;;;;3.53;1.10;;;;;20.20;101310.00;;;;2046272;29;20287;-65
2022/10/06 04:14:59;;;;;;;3.13;1.17;;;;;20.20;101412.00;;;;2051499;28;20216;-65
2022/10/06 04:16:17;;;;;;;2.50;1.10;;;;;20.20;101415.00;;;;2050930;28;20563;-65
2022/10/06 04:17:17;;;;;;;3.70;1.10;;;;;20.20;101415.00;;;;2050503;28;20212;-65
2022/10/06 04:18:18;;;;;;;2.50;1.00;;;;;20.20;101409.00;;;;2051496;28;20688;-64
2022/10/06 04:19:18;;;;;;;2.13;0.93;;;;;20.20;101418.00;;;;2053244;28;20216;-64
2022/10/06 04:20:18;;;;;;;3.10;1.27;;;;;20.20;101404.00;;;;2050646;28;20236;-64
2022/10/06 04:21:19;;;;;;;2.97;1.30;;;;;20.20;101408.00;;;;2050644;28;20619;-65
2022/10/06 04:22:19;;;;;;;1.50;0.87;;;;;20.20;101414.00;;;;2051167;28;20584;-65
2022/10/06 04:23:20;;;;;;;4.27;1.40;;;;;20.20;101411.00;;;;2051370;28;20704;-65
2022/10/06 04:24:20;;;;;;;3.67;1.30;;;;;20.20;101416.00;;;;2050859;28;20248;-65
2022/10/06 04:25:20;;;;;;;4.30;1.33;;;;;20.20;101414.00;;;;2049746;28;20211;-65
2022/10/06 04:26:22;;;;;;;3.20;1.47;;;;;20.20;101423.00;;;;2050022;28;20308;-65
2022/10/06 04:27:28;;;;;;;2.95;1.10;;;;;20.20;101377.00;;;;2051010;28;20223;-65
2022/10/06 04:28:28;;;;;;;5.13;1.50;;;;;20.20;101429.00;;;;2050090;28;20223;-65
2022/10/06 04:29:29;;;;;;;4.10;1.20;;;;;20.20;101425.00;;;;2050908;28;20618;-64
2022/10/06 04:30:29;;;;;;;2.73;1.27;;;;;20.20;101417.00;;;;2051596;28;20251;-65
2022/10/06 04:31:31;;;;;;;4.27;1.27;;;;;20.20;101426.00;;;;2051379;28;20216;-64
2022/10/06 04:32:32;;;;;;;3.50;1.30;;;;;20.20;101430.00;;;;2050773;28;20216;-65
2022/10/06 04:33:33;;;;;;;3.47;1.20;;;;;20.20;101438.00;;;;2051391;28;20341;-65
2022/10/06 04:34:33;;;;;;;4.10;1.40;;;;;20.10;101437.00;;;;2052064;28;20222;-64
2022/10/06 04:35:33;;;;;;;5.03;1.57;;;;;20.20;101339.00;;;;2052116;28;20459;-64
2022/10/06 04:36:39;;;;;;;3.10;1.20;;;;;20.10;101435.00;;;;2052264;28;20274;-65
2022/10/06 04:37:40;;;;;;;4.05;1.40;;;;;20.20;101400.00;;;;2050829;28;20243;-65
2022/10/06 04:38:40;;;;;;;2.43;1.13;;;;;20.20;101449.00;;;;2051155;28;20216;-64
2022/10/06 04:39:40;;;;;;;4.40;1.60;;;;;20.20;101442.00;;;;2051907;28;20220;-64
2022/10/06 04:40:40;;;;;;;5.20;1.60;;;;;20.10;101443.00;;;;2052096;28;20222;-64
2022/10/06 04:41:41;;;;;;;3.33;1.03;;;;;20.10;101474.00;;;;2052747;28;20223;-65
2022/10/06 04:42:42;;;;;;;4.73;1.07;;;;;20.10;101445.00;;;;2054623;28;20211;-65
2022/10/06 04:43:44;;;;;;;3.80;1.50;;;;;20.10;101438.00;;;;2051865;28;20243;-65
2022/10/06 04:44:44;;;;;;;3.22;1.15;;;;;20.10;101456.00;;;;2051894;28;20223;-65
2022/10/06 04:45:45;;;;;;;2.60;1.13;;;;;20.10;101455.00;;;;2052428;28;20216;-65
2022/10/06 04:46:45;;;;;;;3.30;1.57;;;;;20.10;101460.00;;;;2052802;28;20734;-65
2022/10/06 04:47:47;;;;;;;4.80;1.20;;;;;20.20;101430.00;;;;2052683;28;20591;-65
2022/10/06 04:48:51;;;;;;;3.90;1.08;;;;;20.10;101454.00;;;;2052789;28;20211;-65
2022/10/06 04:49:51;;;;;;;4.53;1.30;;;;;20.10;101453.00;;;;2051370;28;20698;-64
2022/10/06 04:50:53;;;;;;;5.47;1.57;;;;;20.10;101461.00;;;;2051665;28;20250;-65
2022/10/06 04:51:53;;;;;;;5.90;1.85;;;;;20.10;101458.00;;;;2051528;28;20238;-64
2022/10/06 04:52:54;;;;;;;3.67;1.37;;;;;20.10;101458.00;;;;2052266;28;20219;-65
2022/10/06 04:53:54;;;;;;;3.70;1.23;;;;;20.10;101466.00;;;;2052720;28;20244;-65
2022/10/06 04:54:54;;;;;;;4.60;1.13;;;;;20.10;101457.00;;;;2055423;28;20208;-64
2022/10/06 04:56:10;;;;;;;3.67;1.13;;;;;20.10;101481.00;;;;2055527;28;20211;-64
2022/10/06 04:57:10;;;;;;;2.50;1.15;;;;;20.10;101475.00;;;;2051860;28;20579;-65
2022/10/06 04:58:11;;;;;;;4.07;1.20;;;;;20.10;101476.00;;;;2051729;28;20215;-65
2022/10/06 04:59:11;;;;;;;3.53;1.47;;;;;20.10;101479.00;;;;2052253;28;20271;-65
2022/10/06 05:00:24;;;;;;;3.93;1.30;;;;;20.10;101474.00;;;;2052522;28;20244;-65
2022/10/06 05:01:32;;;;;;;4.18;1.40;;;;;20.10;101479.00;;;;2052287;28;20215;-65
2022/10/06 05:02:32;;;;;;;3.10;1.30;;;;;20.10;101469.00;;;;2051502;28;20208;-65
2022/10/06 05:03:32;;;;;;;3.70;1.57;;;;;20.10;101482.00;;;;2051675;28;20694;-65
2022/10/06 05:04:33;;;;;;;5.70;1.10;;;;;20.10;101482.00;;;;2051387;28;20683;-64